Terminal Aerodrome Forecast
Issued by NWS

Home | Current Version | Previous Version | Graphics & Text | Print | Product List | Glossary On
Versions: 1 2 3 4 5 6 7 8 9 10 11 12 13 14 15
000
FTUS45 KGGW 241139
TAFSDY
TAF
KSDY 241139Z 2412/2512 VRB03KT P6SM BKN050
     FM242300 17005KT P6SM BKN026
     FM250200 16004KT P6SM SCT035 BKN040
     FM251000 32004KT P6SM VCSH BKN025 OVC027=

USA.gov is the U.S. government's official web portal to all federal, state and local government web resources and services.